Time;durP1;ratioP1;P1;durP2;ratioP2;P2;SDS_P1;SDS_P2;PMS_P1;PMS_P2;Temp;Humidity;BMP_temperature;BMP_pressure;BME280_temperature;BME280_humidity;BME280_pressure;Samples;Min_cycle;Max_cycle;Signal;HPM_P1;HPM_P2
2023/12/20 00:00:18;;;;;;;0.80;0.80;;;;;;;;;;5057629;28;20100;-82
2023/12/20 00:02:46;;;;;;;0.20;0.00;;;;;;;;;;5040147;28;20135;-84
2023/12/20 00:05:13;;;;;;;0.20;0.00;;;;;;;;;;5054292;28;20475;-86
2023/12/20 00:07:40;;;;;;;0.20;0.10;;;;;;;;;;5061108;28;20032;-88
2023/12/20 00:10:07;;;;;;;0.20;0.00;;;;;;;;;;5055884;28;20064;-86
2023/12/20 00:12:33;;;;;;;0.20;0.00;;;;;;;;;;5031850;28;20431;-87
2023/12/20 00:15:01;;;;;;;0.20;0.00;;;;;;;;;;5041878;28;20049;-86
2023/12/20 00:17:31;;;;;;;0.20;0.00;;;;;;;;;;5060157;28;20710;-88
2023/12/20 00:20:00;;;;;;;0.20;0.10;;;;;;;;;;5055562;28;20041;-87
2023/12/20 00:22:28;;;;;;;0.20;0.10;;;;;;;;;;5073570;28;20033;-89
2023/12/20 00:24:57;;;;;;;0.20;0.00;;;;;;;;;;5027747;28;20040;-88
2023/12/20 00:27:23;;;;;;;0.20;0.00;;;;;;;;;;5033468;28;20037;-86
2023/12/20 00:29:50;;;;;;;0.20;0.00;;;;;;;;;;5031614;28;20048;-84
2023/12/20 00:32:16;;;;;;;0.20;0.00;;;;;;;;;;5079226;28;20418;-85
2023/12/20 00:34:42;;;;;;;0.20;0.00;;;;;;;;;;5075341;28;20136;-85
2023/12/20 00:37:09;;;;;;;0.20;0.00;;;;;;;;;;5068432;28;20059;-85
2023/12/20 00:39:38;;;;;;;0.20;0.00;;;;;;;;;;5031008;28;20036;-90
2023/12/20 00:42:04;;;;;;;0.20;0.00;;;;;;;;;;5034552;28;20044;-86
2023/12/20 00:44:33;;;;;;;0.20;0.00;;;;;;;;;;5036081;28;20101;-86
2023/12/20 00:46:59;;;;;;;0.20;0.00;;;;;;;;;;5037109;28;20561;-86
2023/12/20 00:49:25;;;;;;;0.20;0.00;;;;;;;;;;5047315;28;20044;-86
2023/12/20 00:51:53;;;;;;;0.20;0.00;;;;;;;;;;5029871;28;20120;-87
2023/12/20 00:54:19;;;;;;;0.20;0.00;;;;;;;;;;5053864;28;20040;-87
2023/12/20 00:56:49;;;;;;;0.20;0.05;;;;;;;;;;5045614;28;20394;-88
2023/12/20 00:59:15;;;;;;;0.20;0.10;;;;;;;;;;5067277;28;20037;-88
2023/12/20 01:01:42;;;;;;;0.40;0.35;;;;;;;;;;5069967;22;20048;-84
2023/12/20 01:04:08;;;;;;;0.20;0.00;;;;;;;;;;5030686;28;20057;-84
2023/12/20 01:06:37;;;;;;;0.20;0.00;;;;;;;;;;5024999;28;20037;-85
2023/12/20 01:09:06;;;;;;;0.20;0.00;;;;;;;;;;5015223;28;20037;-83
2023/12/20 01:11:46;;;;;;;0.20;0.00;;;;;;;;;;5027497;28;20346;-86
2023/12/20 01:14:15;;;;;;;0.20;0.10;;;;;;;;;;5023989;28;20053;-84
2023/12/20 01:16:43;;;;;;;0.32;0.30;;;;;;;;;;5026126;28;20073;-85
2023/12/20 01:19:13;;;;;;;0.20;0.10;;;;;;;;;;5025354;28;20087;-85
2023/12/20 01:21:42;;;;;;;0.20;0.10;;;;;;;;;;5009153;28;20087;-84
2023/12/20 01:24:08;;;;;;;0.20;0.00;;;;;;;;;;5010643;28;20284;-84
2023/12/20 01:26:34;;;;;;;0.20;0.10;;;;;;;;;;5027942;28;20036;-86
2023/12/20 01:29:00;;;;;;;0.20;0.15;;;;;;;;;;5026173;28;20041;-82
2023/12/20 01:31:27;;;;;;;0.20;0.10;;;;;;;;;;5023732;28;20043;-84
2023/12/20 01:33:53;;;;;;;0.20;0.00;;;;;;;;;;5027164;28;20170;-84
2023/12/20 01:36:19;;;;;;;0.20;0.00;;;;;;;;;;5022117;28;20168;-86
2023/12/20 01:38:45;;;;;;;0.20;0.10;;;;;;;;;;5005535;28;20047;-85
2023/12/20 01:41:23;;;;;;;0.20;0.10;;;;;;;;;;5012714;28;20131;-84
2023/12/20 01:43:49;;;;;;;0.20;0.10;;;;;;;;;;5026913;28;20041;-86
2023/12/20 01:46:15;;;;;;;0.20;0.00;;;;;;;;;;5028798;28;20100;-86
2023/12/20 01:48:45;;;;;;;0.20;0.00;;;;;;;;;;5024626;28;20037;-84
2023/12/20 01:51:11;;;;;;;0.20;0.10;;;;;;;;;;5026433;28;20099;-84
2023/12/20 01:53:37;;;;;;;0.20;0.00;;;;;;;;;;5010875;28;20055;-86
2023/12/20 01:56:03;;;;;;;0.20;0.00;;;;;;;;;;5010948;28;20043;-85
2023/12/20 01:58:30;;;;;;;0.20;0.00;;;;;;;;;;5007664;28;20041;-83
2023/12/20 02:00:56;;;;;;;0.20;0.10;;;;;;;;;;5027186;28;20464;-83
2023/12/20 02:03:25;;;;;;;0.20;0.00;;;;;;;;;;5012230;28;20033;-86
2023/12/20 02:05:51;;;;;;;0.20;0.00;;;;;;;;;;5024211;28;20036;-84
2023/12/20 02:08:27;;;;;;;0.52;0.52;;;;;;;;;;5008556;28;20045;-84
2023/12/20 02:10:57;;;;;;;0.20;0.10;;;;;;;;;;5025278;28;20037;-87
2023/12/20 02:13:23;;;;;;;0.20;0.10;;;;;;;;;;5012695;28;20048;-84
2023/12/20 02:15:49;;;;;;;0.20;0.00;;;;;;;;;;5023794;28;20405;-84
2023/12/20 02:18:16;;;;;;;0.30;0.30;;;;;;;;;;5020979;28;20056;-86
2023/12/20 02:20:42;;;;;;;0.20;0.15;;;;;;;;;;5022120;28;20469;-85
2023/12/20 02:23:14;;;;;;;0.20;0.00;;;;;;;;;;5012765;28;20687;-85
2023/12/20 02:25:40;;;;;;;0.20;0.10;;;;;;;;;;5009198;28;20741;-83
2023/12/20 02:28:07;;;;;;;0.20;0.05;;;;;;;;;;5022291;28;20033;-84
2023/12/20 02:30:35;;;;;;;0.20;0.00;;;;;;;;;;5007498;28;20397;-85
2023/12/20 02:33:01;;;;;;;0.20;0.00;;;;;;;;;;5008161;28;20150;-87
2023/12/20 02:35:30;;;;;;;0.20;0.00;;;;;;;;;;5026624;28;20561;-83
2023/12/20 02:37:56;;;;;;;0.20;0.00;;;;;;;;;;5007746;28;20036;-85
2023/12/20 02:40:24;;;;;;;0.20;0.00;;;;;;;;;;5022812;28;20040;-82
2023/12/20 02:42:50;;;;;;;0.20;0.00;;;;;;;;;;5019701;28;20040;-85
2023/12/20 02:45:16;;;;;;;0.20;0.00;;;;;;;;;;5006428;28;20129;-84
2023/12/20 02:47:42;;;;;;;0.20;0.00;;;;;;;;;;5025043;28;20083;-85
2023/12/20 02:50:09;;;;;;;0.20;0.13;;;;;;;;;;5023309;28;20124;-84
2023/12/20 02:52:37;;;;;;;0.38;0.32;;;;;;;;;;5004260;28;20037;-83
2023/12/20 02:55:03;;;;;;;0.20;0.20;;;;;;;;;;5011114;28;20045;-85
2023/12/20 02:57:29;;;;;;;0.20;0.00;;;;;;;;;;5021719;28;20134;-86
2023/12/20 02:59:55;;;;;;;0.20;0.10;;;;;;;;;;5021616;28;20084;-86
2023/12/20 03:02:24;;;;;;;0.20;0.00;;;;;;;;;;5022929;28;20037;-86
2023/12/20 03:04:54;;;;;;;0.20;0.00;;;;;;;;;;5019478;28;20631;-86
2023/12/20 03:07:23;;;;;;;0.20;0.00;;;;;;;;;;5009495;28;20037;-86
2023/12/20 03:09:52;;;;;;;0.20;0.10;;;;;;;;;;5024040;28;20040;-86
2023/12/20 03:12:18;;;;;;;0.20;0.00;;;;;;;;;;5019829;28;20040;-85
2023/12/20 03:14:44;;;;;;;0.20;0.20;;;;;;;;;;5007153;28;20507;-84
2023/12/20 03:17:10;;;;;;;0.20;0.10;;;;;;;;;;5041239;28;20045;-84
2023/12/20 03:19:36;;;;;;;0.20;0.00;;;;;;;;;;5003892;28;20041;-85
2023/12/20 03:22:02;;;;;;;0.20;0.10;;;;;;;;;;5013067;28;20519;-85
2023/12/20 03:24:28;;;;;;;0.20;0.00;;;;;;;;;;5016926;28;20044;-84
2023/12/20 03:26:54;;;;;;;0.20;0.00;;;;;;;;;;5025677;28;20405;-87
2023/12/20 03:29:20;;;;;;;0.20;0.00;;;;;;;;;;5013726;28;20419;-85
2023/12/20 03:31:46;;;;;;;0.20;0.00;;;;;;;;;;5022800;28;20041;-83
2023/12/20 03:34:15;;;;;;;0.20;0.05;;;;;;;;;;5022766;28;20128;-82
2023/12/20 03:36:41;;;;;;;0.20;0.00;;;;;;;;;;5011954;28;20048;-83
2023/12/20 03:39:07;;;;;;;0.20;0.00;;;;;;;;;;5021266;28;20033;-85
2023/12/20 03:41:34;;;;;;;1.35;1.25;;;;;;;;;;5021381;28;20068;-84
2023/12/20 03:44:00;;;;;;;0.20;0.00;;;;;;;;;;5018384;28;20099;-84
2023/12/20 03:46:26;;;;;;;0.20;0.00;;;;;;;;;;5021196;28;20679;-86
2023/12/20 03:48:52;;;;;;;0.30;0.30;;;;;;;;;;5020124;28;20045;-82
2023/12/20 03:51:18;;;;;;;0.20;0.00;;;;;;;;;;5024588;28;20583;-84
2023/12/20 03:53:44;;;;;;;0.20;0.00;;;;;;;;;;5008797;28;20040;-82
2023/12/20 03:56:10;;;;;;;0.20;0.00;;;;;;;;;;5022839;28;20125;-83
2023/12/20 03:58:39;;;;;;;0.20;0.00;;;;;;;;;;5024268;28;20040;-86
2023/12/20 04:01:14;;;;;;;0.20;0.10;;;;;;;;;;5010956;28;20037;-84
2023/12/20 04:03:40;;;;;;;0.20;0.00;;;;;;;;;;5024707;28;20041;-85
2023/12/20 04:06:09;;;;;;;0.20;0.10;;;;;;;;;;5012875;28;20069;-85
2023/12/20 04:08:38;;;;;;;0.20;0.00;;;;;;;;;;5011924;28;20030;-83
2023/12/20 04:11:04;;;;;;;0.20;0.10;;;;;;;;;;5009946;28;20136;-84
2023/12/20 04:13:30;;;;;;;0.20;0.10;;;;;;;;;;5028537;28;20127;-85
2023/12/20 04:15:56;;;;;;;0.20;0.00;;;;;;;;;;5012379;28;20627;-86
2023/12/20 04:18:22;;;;;;;0.20;0.00;;;;;;;;;;5010582;28;20030;-81
2023/12/20 04:20:49;;;;;;;0.20;0.10;;;;;;;;;;5031369;28;20071;-84
2023/12/20 04:23:15;;;;;;;0.20;0.00;;;;;;;;;;5012536;28;20041;-84
2023/12/20 04:25:41;;;;;;;0.20;0.00;;;;;;;;;;5026219;28;20048;-82
2023/12/20 04:28:07;;;;;;;0.20;0.00;;;;;;;;;;5023572;28;20088;-85
2023/12/20 04:30:33;;;;;;;0.20;0.10;;;;;;;;;;5024991;28;20044;-86
2023/12/20 04:33:02;;;;;;;0.43;0.43;;;;;;;;;;5029241;28;20057;-86
2023/12/20 04:35:28;;;;;;;0.20;0.00;;;;;;;;;;5008113;28;20539;-84
2023/12/20 04:37:54;;;;;;;0.20;0.00;;;;;;;;;;5014818;28;20037;-85
2023/12/20 04:40:20;;;;;;;0.20;0.08;;;;;;;;;;5023279;28;20080;-85
2023/12/20 04:42:48;;;;;;;0.68;0.52;;;;;;;;;;5029896;28;20037;-86
2023/12/20 04:45:15;;;;;;;0.20;0.00;;;;;;;;;;5011086;28;20044;-82
2023/12/20 04:47:42;;;;;;;0.20;0.00;;;;;;;;;;5024417;28;20094;-84
2023/12/20 04:50:13;;;;;;;0.20;0.00;;;;;;;;;;5025811;28;20053;-87
2023/12/20 04:52:41;;;;;;;0.20;0.00;;;;;;;;;;5021174;28;20589;-85
2023/12/20 04:55:08;;;;;;;0.20;0.00;;;;;;;;;;5012339;28;20072;-83
2023/12/20 04:57:34;;;;;;;0.20;0.00;;;;;;;;;;5022406;28;20080;-86
2023/12/20 05:00:00;;;;;;;0.20;0.05;;;;;;;;;;5009250;28;20056;-85
2023/12/20 05:02:27;;;;;;;0.20;0.00;;;;;;;;;;5027462;28;20044;-85
2023/12/20 05:04:52;;;;;;;0.20;0.00;;;;;;;;;;5030987;28;20069;-85
2023/12/20 05:07:18;;;;;;;0.20;0.00;;;;;;;;;;5026009;28;20041;-84
2023/12/20 05:09:45;;;;;;;0.20;0.10;;;;;;;;;;5007276;28;20044;-84
2023/12/20 05:12:11;;;;;;;0.20;0.00;;;;;;;;;;5021943;28;20041;-85
2023/12/20 05:14:37;;;;;;;0.20;0.00;;;;;;;;;;5023969;28;20715;-85
2023/12/20 05:17:03;;;;;;;0.20;0.00;;;;;;;;;;5022003;28;20038;-85
2023/12/20 05:19:29;;;;;;;0.20;0.10;;;;;;;;;;5024515;28;20033;-86
2023/12/20 05:21:55;;;;;;;0.20;0.15;;;;;;;;;;5024600;28;20049;-84
2023/12/20 05:24:21;;;;;;;0.28;0.13;;;;;;;;;;5025303;28;20033;-84
2023/12/20 05:26:50;;;;;;;0.20;0.00;;;;;;;;;;5024442;28;20037;-85
2023/12/20 05:29:21;;;;;;;0.20;0.00;;;;;;;;;;5027637;28;20493;-85
2023/12/20 05:31:47;;;;;;;0.20;0.05;;;;;;;;;;5024705;28;20041;-84
2023/12/20 05:34:13;;;;;;;0.20;0.00;;;;;;;;;;5013444;28;20063;-84
2023/12/20 05:36:42;;;;;;;0.20;0.00;;;;;;;;;;5019066;28;20047;-84
2023/12/20 05:39:12;;;;;;;0.20;0.10;;;;;;;;;;5020456;28;20511;-84
2023/12/20 05:41:38;;;;;;;0.20;0.00;;;;;;;;;;5028885;28;20071;-83
2023/12/20 05:44:04;;;;;;;0.22;0.22;;;;;;;;;;5019076;28;20036;-85
2023/12/20 05:46:30;;;;;;;0.20;0.00;;;;;;;;;;5024038;28;20132;-84
2023/12/20 05:48:56;;;;;;;0.20;0.00;;;;;;;;;;5011672;28;20048;-83
2023/12/20 05:51:22;;;;;;;0.20;0.00;;;;;;;;;;5012804;28;20876;-83
2023/12/20 05:53:49;;;;;;;0.20;0.08;;;;;;;;;;5023309;28;20048;-85
2023/12/20 05:56:15;;;;;;;0.30;0.30;;;;;;;;;;5037292;28;20045;-87
2023/12/20 05:58:45;;;;;;;0.20;0.00;;;;;;;;;;5023213;28;20032;-84
2023/12/20 06:01:11;;;;;;;0.20;0.00;;;;;;;;;;5025961;28;20044;-82
2023/12/20 06:03:37;;;;;;;0.20;0.00;;;;;;;;;;5023947;28;20038;-85
2023/12/20 06:06:07;;;;;;;0.52;0.52;;;;;;;;;;5043080;28;20048;-82
2023/12/20 06:08:33;;;;;;;0.20;0.00;;;;;;;;;;5014769;28;20067;-84
2023/12/20 06:10:59;;;;;;;0.20;0.10;;;;;;;;;;5026449;28;20512;-84
2023/12/20 06:13:28;;;;;;;0.20;0.00;;;;;;;;;;5028235;28;20067;-85
2023/12/20 06:15:57;;;;;;;0.20;0.00;;;;;;;;;;5018553;28;20497;-84
2023/12/20 06:18:26;;;;;;;0.20;0.00;;;;;;;;;;5002211;28;20037;-85
2023/12/20 06:21:04;;;;;;;0.20;0.10;;;;;;;;;;5021796;28;20493;-86
2023/12/20 06:23:33;;;;;;;0.20;0.00;;;;;;;;;;5023270;28;20071;-85
2023/12/20 06:26:00;;;;;;;0.20;0.10;;;;;;;;;;5005348;28;20045;-85
2023/12/20 06:28:44;;;;;;;0.20;0.13;;;;;;;;;;5002705;28;20045;-84
2023/12/20 06:31:10;;;;;;;0.35;0.20;;;;;;;;;;5021936;28;20053;-84
2023/12/20 06:33:36;;;;;;;0.20;0.10;;;;;;;;;;5008115;28;20053;-84
2023/12/20 06:36:05;;;;;;;0.20;0.00;;;;;;;;;;5019658;28;20041;-82
2023/12/20 06:38:33;;;;;;;0.25;0.20;;;;;;;;;;5043184;28;20048;-83
2023/12/20 06:40:59;;;;;;;0.20;0.20;;;;;;;;;;5043132;28;20123;-83
2023/12/20 06:43:25;;;;;;;0.20;0.08;;;;;;;;;;5023682;28;20033;-83
2023/12/20 06:45:52;;;;;;;0.20;0.10;;;;;;;;;;5024577;28;20056;-85
2023/12/20 06:48:18;;;;;;;8.88;0.90;;;;;;;;;;5021530;28;20049;-83
2023/12/20 06:50:44;;;;;;;0.20;0.03;;;;;;;;;;5024816;28;20052;-82
2023/12/20 06:53:10;;;;;;;0.95;0.82;;;;;;;;;;5020741;28;20104;-84
2023/12/20 06:55:37;;;;;;;5.05;0.63;;;;;;;;;;5019180;28;20122;-83
2023/12/20 06:58:04;;;;;;;0.20;0.00;;;;;;;;;;5011052;28;20040;-86
2023/12/20 07:00:30;;;;;;;0.20;0.00;;;;;;;;;;5022613;28;20045;-84
2023/12/20 07:03:02;;;;;;;0.20;0.03;;;;;;;;;;5040647;22;20055;-85
2023/12/20 07:05:28;;;;;;;0.20;0.10;;;;;;;;;;5004614;28;20145;-85
2023/12/20 07:07:54;;;;;;;0.47;0.47;;;;;;;;;;5028470;28;20087;-84
2023/12/20 07:10:20;;;;;;;0.38;0.32;;;;;;;;;;5030230;28;20083;-85
2023/12/20 07:12:50;;;;;;;0.20;0.00;;;;;;;;;;4997796;28;20037;-87
2023/12/20 07:15:23;;;;;;;0.20;0.00;;;;;;;;;;4990781;28;20083;-86
2023/12/20 07:17:49;;;;;;;0.20;0.00;;;;;;;;;;5005392;28;20053;-84
2023/12/20 07:20:15;;;;;;;0.20;0.10;;;;;;;;;;5008435;28;20088;-86
2023/12/20 07:22:41;;;;;;;0.20;0.10;;;;;;;;;;5017763;28;20086;-84
2023/12/20 07:25:08;;;;;;;0.20;0.00;;;;;;;;;;4990972;28;20412;-84
2023/12/20 07:27:34;;;;;;;0.20;0.10;;;;;;;;;;4988833;28;20465;-87
2023/12/20 07:30:02;;;;;;;0.20;0.20;;;;;;;;;;5008582;28;20140;-87
2023/12/20 07:32:29;;;;;;;0.25;0.17;;;;;;;;;;4993155;28;20067;-83
2023/12/20 07:34:55;;;;;;;0.20;0.10;;;;;;;;;;4992865;28;20121;-83
2023/12/20 07:37:21;;;;;;;0.20;0.10;;;;;;;;;;4988890;28;20037;-86
2023/12/20 07:39:50;;;;;;;0.20;0.00;;;;;;;;;;4993272;28;20044;-87
2023/12/20 07:42:16;;;;;;;0.20;0.00;;;;;;;;;;5014858;28;20045;-85
2023/12/20 07:44:42;;;;;;;0.20;0.00;;;;;;;;;;4997025;28;20477;-88
2023/12/20 07:47:08;;;;;;;0.20;0.00;;;;;;;;;;4994123;28;20046;-87
2023/12/20 07:49:38;;;;;;;0.20;0.10;;;;;;;;;;5007094;28;20486;-88
2023/12/20 07:52:08;;;;;;;0.20;0.20;;;;;;;;;;5002556;28;20046;-88
2023/12/20 07:54:34;;;;;;;0.20;0.00;;;;;;;;;;4984949;28;20076;-86
2023/12/20 07:57:00;;;;;;;0.20;0.00;;;;;;;;;;4993438;28;20044;-86
2023/12/20 07:59:29;;;;;;;0.20;0.10;;;;;;;;;;5011757;28;20386;-84
2023/12/20 08:01:55;;;;;;;0.20;0.00;;;;;;;;;;5010742;28;20060;-85
2023/12/20 08:04:24;;;;;;;0.20;0.00;;;;;;;;;;5011047;28;20048;-87
2023/12/20 08:06:58;;;;;;;0.20;0.10;;;;;;;;;;5008316;28;20054;-87
2023/12/20 08:09:27;;;;;;;0.20;0.00;;;;;;;;;;5010770;28;20037;-85
2023/12/20 08:11:53;;;;;;;0.20;0.00;;;;;;;;;;4997994;28;20072;-88
2023/12/20 08:14:19;;;;;;;0.20;0.00;;;;;;;;;;4995243;28;20049;-85
2023/12/20 08:16:45;;;;;;;0.20;0.00;;;;;;;;;;5013427;28;20049;-83
2023/12/20 08:19:13;;;;;;;0.20;0.10;;;;;;;;;;4995579;28;20044;-84
2023/12/20 08:21:39;;;;;;;1.10;1.10;;;;;;;;;;5011650;28;20378;-83
2023/12/20 08:24:09;;;;;;;0.20;0.00;;;;;;;;;;4998541;28;20066;-90
2023/12/20 08:26:35;;;;;;;0.20;0.00;;;;;;;;;;4996800;28;20099;-87
2023/12/20 08:29:01;;;;;;;0.20;0.00;;;;;;;;;;4991744;28;20046;-86
2023/12/20 08:31:27;;;;;;;0.20;0.10;;;;;;;;;;5026234;28;20049;-88
2023/12/20 08:34:01;;;;;;;0.20;0.10;;;;;;;;;;5026785;28;20409;-85
2023/12/20 08:36:37;;;;;;;;;;;;;;;;;;;;;
2023/12/20 08:39:16;;;;;;;0.20;0.00;;;;;;;;;;5012546;28;20038;-85
2023/12/20 08:41:51;;;;;;;0.20;0.10;;;;;;;;;;5026332;28;20129;-86
2023/12/20 08:44:17;;;;;;;0.20;0.10;;;;;;;;;;5011163;28;20041;-87
2023/12/20 08:46:46;;;;;;;0.20;0.00;;;;;;;;;;4998039;28;20048;-87
2023/12/20 08:49:17;;;;;;;0.20;0.00;;;;;;;;;;4997798;28;20064;-86
2023/12/20 08:51:43;;;;;;;0.20;0.00;;;;;;;;;;4996302;28;20045;-85
2023/12/20 08:54:10;;;;;;;0.20;0.00;;;;;;;;;;5027333;28;20045;-84
2023/12/20 08:56:36;;;;;;;0.20;0.10;;;;;;;;;;4988686;28;20081;-86
2023/12/20 08:59:02;;;;;;;0.20;0.00;;;;;;;;;;4994383;28;20129;-87
2023/12/20 09:01:28;;;;;;;0.20;0.10;;;;;;;;;;5020019;28;20033;-85
2023/12/20 09:04:10;;;;;;;0.20;0.10;;;;;;;;;;5013826;28;20041;-86
2023/12/20 09:06:42;;;;;;;0.20;0.00;;;;;;;;;;4999575;28;20296;-87
2023/12/20 09:09:14;;;;;;;0.20;0.10;;;;;;;;;;5026540;28;20037;-86
2023/12/20 09:11:42;;;;;;;0.20;0.10;;;;;;;;;;5011680;28;20044;-84
2023/12/20 09:14:11;;;;;;;0.20;0.00;;;;;;;;;;4995874;28;20038;-86
2023/12/20 09:16:37;;;;;;;0.20;0.00;;;;;;;;;;4994659;28;20044;-87
2023/12/20 09:19:03;;;;;;;0.20;0.00;;;;;;;;;;4996427;28;20049;-84
2023/12/20 09:21:47;;;;;;;0.20;0.00;;;;;;;;;;4996395;28;20494;-85
2023/12/20 09:24:13;;;;;;;0.40;0.25;;;;;;;;;;5009211;28;20052;-86
2023/12/20 09:26:39;;;;;;;0.20;0.10;;;;;;;;;;5014982;28;20109;-84
2023/12/20 09:29:07;;;;;;;0.20;0.20;;;;;;;;;;4996608;28;20050;-85
2023/12/20 09:31:33;;;;;;;0.75;0.57;;;;;;;;;;5008139;28;20056;-84
2023/12/20 09:33:59;;;;;;;0.20;0.00;;;;;;;;;;4995166;28;20137;-86
2023/12/20 09:36:27;;;;;;;0.20;0.10;;;;;;;;;;4997199;28;20045;-84
2023/12/20 09:38:54;;;;;;;0.20;0.00;;;;;;;;;;4997014;28;20049;-86
2023/12/20 09:41:20;;;;;;;0.20;0.00;;;;;;;;;;4997533;28;20401;-86
2023/12/20 09:43:56;;;;;;;0.20;0.00;;;;;;;;;;5006948;28;20041;-87
2023/12/20 09:46:27;;;;;;;0.20;0.00;;;;;;;;;;5005120;28;20128;-86
2023/12/20 09:48:56;;;;;;;0.20;0.00;;;;;;;;;;4997073;28;20493;-87
2023/12/20 09:51:23;;;;;;;0.20;0.00;;;;;;;;;;5027601;28;20056;-86
2023/12/20 09:53:49;;;;;;;0.20;0.10;;;;;;;;;;4995305;28;20057;-86
2023/12/20 09:56:15;;;;;;;0.20;0.00;;;;;;;;;;4991714;28;20295;-87
2023/12/20 09:58:46;;;;;;;0.20;0.00;;;;;;;;;;4993684;28;20052;-89
2023/12/20 10:01:18;;;;;;;0.20;0.10;;;;;;;;;;4987963;28;20452;-87
2023/12/20 10:03:44;;;;;;;0.20;0.00;;;;;;;;;;5006991;28;20041;-87
2023/12/20 10:06:11;;;;;;;0.20;0.00;;;;;;;;;;4995140;28;20045;-86
2023/12/20 10:08:37;;;;;;;0.20;0.10;;;;;;;;;;5004956;28;20584;-85
2023/12/20 10:11:03;;;;;;;0.20;0.00;;;;;;;;;;5024001;28;20041;-84
2023/12/20 10:13:29;;;;;;;0.20;0.00;;;;;;;;;;5011080;28;20064;-84
2023/12/20 10:15:57;;;;;;;0.20;0.00;;;;;;;;;;5009182;28;20095;-87
2023/12/20 10:18:23;;;;;;;0.20;0.00;;;;;;;;;;5008466;28;20530;-83
2023/12/20 10:20:49;;;;;;;0.20;0.10;;;;;;;;;;4995719;28;20111;-84
2023/12/20 10:23:18;;;;;;;0.20;0.00;;;;;;;;;;4993663;28;20037;-89
2023/12/20 10:25:56;;;;;;;0.20;0.10;;;;;;;;;;5003525;28;20049;-87
2023/12/20 10:28:27;;;;;;;0.20;0.00;;;;;;;;;;5017790;28;20121;-82
2023/12/20 10:30:53;;;;;;;0.20;0.00;;;;;;;;;;5008989;28;20064;-82
2023/12/20 10:33:25;;;;;;;0.20;0.10;;;;;;;;;;5003491;28;20053;-84
2023/12/20 10:35:52;;;;;;;0.20;0.10;;;;;;;;;;5005407;28;20463;-86
2023/12/20 10:38:18;;;;;;;0.20;0.00;;;;;;;;;;5002824;28;20094;-85
2023/12/20 10:40:46;;;;;;;0.20;0.00;;;;;;;;;;5012634;28;20037;-85
2023/12/20 10:43:12;;;;;;;0.20;0.00;;;;;;;;;;4992466;28;20042;-84
2023/12/20 10:45:38;;;;;;;0.20;0.00;;;;;;;;;;4991913;28;20048;-86
2023/12/20 10:48:07;;;;;;;0.20;0.00;;;;;;;;;;4992031;28;20037;-86
2023/12/20 10:50:38;;;;;;;0.25;0.10;;;;;;;;;;5000302;28;20052;-84
2023/12/20 10:53:04;;;;;;;0.20;0.00;;;;;;;;;;5007904;28;20041;-87
2023/12/20 10:55:30;;;;;;;0.20;0.00;;;;;;;;;;5009029;28;20045;-85
2023/12/20 10:58:01;;;;;;;0.20;0.10;;;;;;;;;;4993230;28;20059;-85
2023/12/20 11:00:30;;;;;;;0.20;0.00;;;;;;;;;;4990510;28;20103;-84
2023/12/20 11:02:57;;;;;;;0.20;0.00;;;;;;;;;;4991179;28;20041;-84
2023/12/20 11:05:23;;;;;;;0.20;0.00;;;;;;;;;;4985438;28;20534;-87
2023/12/20 11:08:09;;;;;;;0.20;0.00;;;;;;;;;;4995405;28;20075;-88
2023/12/20 11:10:44;;;;;;;0.20;0.17;;;;;;;;;;5020390;28;20567;-85
2023/12/20 11:13:20;;;;;;;0.20;0.00;;;;;;;;;;5001508;28;20390;-88
2023/12/20 11:15:46;;;;;;;0.20;0.10;;;;;;;;;;5008208;28;20135;-87
2023/12/20 11:18:12;;;;;;;0.35;0.30;;;;;;;;;;4995484;28;20065;-87
2023/12/20 11:20:39;;;;;;;0.30;0.08;;;;;;;;;;5010716;28;20433;-84
2023/12/20 11:23:11;;;;;;;0.20;0.00;;;;;;;;;;5008710;28;21068;-88
2023/12/20 11:25:53;;;;;;;0.20;0.00;;;;;;;;;;5007420;28;20041;-87
2023/12/20 11:28:24;;;;;;;0.20;0.00;;;;;;;;;;5009716;28;20073;-85
2023/12/20 11:30:51;;;;;;;0.20;0.00;;;;;;;;;;4991512;28;20132;-89
2023/12/20 11:33:21;;;;;;;0.20;0.00;;;;;;;;;;5007534;28;20075;-84
2023/12/20 11:35:47;;;;;;;0.20;0.00;;;;;;;;;;4991673;28;20236;-86
2023/12/20 11:38:14;;;;;;;0.20;0.10;;;;;;;;;;4992535;28;20042;-86
2023/12/20 11:40:41;;;;;;;0.20;0.20;;;;;;;;;;5008088;28;20417;-85
2023/12/20 11:43:07;;;;;;;0.20;0.00;;;;;;;;;;5009044;28;20556;-84
2023/12/20 11:45:37;;;;;;;0.20;0.10;;;;;;;;;;5004439;28;20452;-88
2023/12/20 11:48:03;;;;;;;0.20;0.10;;;;;;;;;;5001870;28;20056;-85
2023/12/20 11:50:30;;;;;;;0.20;0.00;;;;;;;;;;5003779;28;20053;-85
2023/12/20 11:52:57;;;;;;;0.20;0.00;;;;;;;;;;4990280;28;20053;-86
2023/12/20 11:55:26;;;;;;;0.20;0.20;;;;;;;;;;4990848;28;20045;-85
2023/12/20 11:57:55;;;;;;;0.20;0.00;;;;;;;;;;4991243;28;20044;-87
2023/12/20 12:00:21;;;;;;;0.20;0.00;;;;;;;;;;4992651;28;20060;-84
2023/12/20 12:03:01;;;;;;;0.20;0.00;;;;;;;;;;5005972;28;20099;-84
2023/12/20 12:05:27;;;;;;;0.20;0.00;;;;;;;;;;5006754;28;20046;-85
2023/12/20 12:07:53;;;;;;;0.20;0.10;;;;;;;;;;4990287;28;20103;-86
2023/12/20 12:10:32;;;;;;;0.20;0.00;;;;;;;;;;5007139;28;20413;-86
2023/12/20 12:12:58;;;;;;;0.20;0.00;;;;;;;;;;4992261;28;20041;-87
2023/12/20 12:15:24;;;;;;;0.20;0.00;;;;;;;;;;4991138;28;20449;-84
2023/12/20 12:17:57;;;;;;;0.20;0.10;;;;;;;;;;4993007;28;20049;-86
2023/12/20 12:20:23;;;;;;;0.20;0.00;;;;;;;;;;5019139;28;20501;-87
2023/12/20 12:23:04;;;;;;;0.20;0.00;;;;;;;;;;5008063;28;20096;-86
2023/12/20 12:25:31;;;;;;;0.20;0.03;;;;;;;;;;4992819;28;20069;-85
2023/12/20 12:27:58;;;;;;;0.20;0.10;;;;;;;;;;5010327;28;20060;-85
2023/12/20 12:30:24;;;;;;;0.20;0.00;;;;;;;;;;5007842;28;20099;-84
2023/12/20 12:32:53;;;;;;;0.20;0.00;;;;;;;;;;5007003;28;20049;-87
2023/12/20 12:35:20;;;;;;;0.20;0.10;;;;;;;;;;5011753;28;20521;-86
2023/12/20 12:37:46;;;;;;;0.20;0.00;;;;;;;;;;4998802;28;20116;-86
2023/12/20 12:40:14;;;;;;;0.80;0.80;;;;;;;;;;4997922;28;20044;-89
2023/12/20 12:42:40;;;;;;;0.20;0.00;;;;;;;;;;5024136;28;20038;-89
2023/12/20 12:45:07;;;;;;;0.20;0.10;;;;;;;;;;4991369;28;20489;-86
2023/12/20 12:47:36;;;;;;;0.20;0.00;;;;;;;;;;5011228;28;20044;-86
2023/12/20 12:50:02;;;;;;;0.20;0.00;;;;;;;;;;5022539;28;20032;-86
2023/12/20 12:52:28;;;;;;;0.20;0.00;;;;;;;;;;4993519;28;20231;-85
2023/12/20 12:55:00;;;;;;;0.20;0.00;;;;;;;;;;4996831;28;20041;-86
2023/12/20 12:57:26;;;;;;;0.20;0.00;;;;;;;;;;4999703;28;20433;-87
2023/12/20 12:59:52;;;;;;;0.20;0.10;;;;;;;;;;5022272;28;20551;-86
2023/12/20 13:02:25;;;;;;;0.20;0.00;;;;;;;;;;4995039;28;20041;-89
2023/12/20 13:04:51;;;;;;;0.20;0.00;;;;;;;;;;5016621;28;20129;-86
2023/12/20 13:07:20;;;;;;;0.20;0.00;;;;;;;;;;5008506;28;20127;-88
2023/12/20 13:09:46;;;;;;;0.20;0.10;;;;;;;;;;5000411;28;20087;-88
2023/12/20 13:12:12;;;;;;;0.20;0.10;;;;;;;;;;5013236;28;20049;-87
2023/12/20 13:14:41;;;;;;;0.55;0.55;;;;;;;;;;4992790;28;20041;-86
2023/12/20 13:17:07;;;;;;;0.20;0.10;;;;;;;;;;4996979;28;20528;-87
2023/12/20 13:19:33;;;;;;;0.20;0.00;;;;;;;;;;5006028;28;20077;-86
2023/12/20 13:22:04;;;;;;;0.20;0.10;;;;;;;;;;5013735;28;20040;-86
2023/12/20 13:24:30;;;;;;;0.20;0.10;;;;;;;;;;4996743;28;20033;-85
2023/12/20 13:26:56;;;;;;;0.20;0.10;;;;;;;;;;5010453;28;20247;-85
2023/12/20 13:29:28;;;;;;;0.20;0.00;;;;;;;;;;4997549;28;20104;-88
2023/12/20 13:31:54;;;;;;;0.20;0.08;;;;;;;;;;5007729;28;20061;-85
2023/12/20 13:34:21;;;;;;;0.20;0.00;;;;;;;;;;5011881;28;20052;-84
2023/12/20 13:36:50;;;;;;;0.20;0.10;;;;;;;;;;4995178;28;20045;-82
2023/12/20 13:39:16;;;;;;;0.20;0.00;;;;;;;;;;5011799;28;20054;-82
2023/12/20 13:41:43;;;;;;;0.20;0.20;;;;;;;;;;4993955;28;20038;-84
2023/12/20 13:44:09;;;;;;;0.20;0.10;;;;;;;;;;4991023;28;20568;-85
2023/12/20 13:46:36;;;;;;;0.20;0.03;;;;;;;;;;5015097;28;20037;-83
2023/12/20 13:49:03;;;;;;;0.20;0.10;;;;;;;;;;5025751;28;20175;-81
2023/12/20 13:51:29;;;;;;;0.20;0.00;;;;;;;;;;5009156;28;20519;-84
2023/12/20 13:53:55;;;;;;;0.20;0.10;;;;;;;;;;5012966;28;20060;-83
2023/12/20 13:56:23;;;;;;;0.20;0.00;;;;;;;;;;5005375;28;20069;-85
2023/12/20 13:58:50;;;;;;;0.20;0.05;;;;;;;;;;4995310;28;20037;-82
2023/12/20 14:01:16;;;;;;;0.20;0.10;;;;;;;;;;4994725;28;20460;-84
2023/12/20 14:03:42;;;;;;;0.68;0.68;;;;;;;;;;4992077;28;20043;-85
2023/12/20 14:06:08;;;;;;;0.20;0.00;;;;;;;;;;4997840;28;20050;-83
2023/12/20 14:08:37;;;;;;;0.20;0.10;;;;;;;;;;4993924;28;20037;-86
2023/12/20 14:11:03;;;;;;;0.20;0.08;;;;;;;;;;4988012;28;20512;-84
2023/12/20 14:13:29;;;;;;;0.20;0.00;;;;;;;;;;5010490;28;20038;-87
2023/12/20 14:15:55;;;;;;;0.20;0.00;;;;;;;;;;4995698;28;20125;-85
2023/12/20 14:18:21;;;;;;;0.20;0.10;;;;;;;;;;4991859;28;20104;-85
2023/12/20 14:20:50;;;;;;;0.20;0.00;;;;;;;;;;4994626;28;20041;-85
2023/12/20 14:23:16;;;;;;;0.20;0.00;;;;;;;;;;4991691;28;20336;-84
2023/12/20 14:25:45;;;;;;;0.20;0.00;;;;;;;;;;4994788;28;20092;-89
2023/12/20 14:28:14;;;;;;;0.20;0.00;;;;;;;;;;4997780;28;20643;-84
2023/12/20 14:30:40;;;;;;;0.20;0.00;;;;;;;;;;5022717;28;20040;-84
2023/12/20 14:33:06;;;;;;;0.20;0.00;;;;;;;;;;5021774;28;20447;-85
2023/12/20 14:35:32;;;;;;;0.20;0.10;;;;;;;;;;4990780;28;20395;-83
2023/12/20 14:37:58;;;;;;;0.20;0.00;;;;;;;;;;4987767;28;20045;-84
2023/12/20 14:40:24;;;;;;;0.20;0.00;;;;;;;;;;4990161;28;20120;-84
2023/12/20 14:42:51;;;;;;;0.20;0.00;;;;;;;;;;4992789;28;20493;-85
2023/12/20 14:45:18;;;;;;;0.20;0.00;;;;;;;;;;4991008;28;20072;-87